Terminal Aerodrome Forecast
Issued by NWS

Home | Current Version | Previous Version | Text Only | Print | Product List | Glossary On
Versions: 1 2 3 4 5 6 7 8 9 10 11 12 13 14 15 16 17 18 19 20 21 22 23 24 25 26 27 28 29
000
FTUS41 KOKX 221329 AAA
TAFSWF
TAF AMD
KSWF 221329Z 2213/2318 VRB02KT P6SM BKN050
     FM221600 24005KT P6SM BKN050
     FM222100 VRB03KT P6SM BKN250
     FM230700 VRB02KT 5SM BR FEW010 BKN100
     FM231000 VRB02KT 2SM BR SCT005 BKN250
     FM231500 23006KT 6SM BR SCT005 SCT030
      AMD NOT SKED=

USA.gov is the U.S. government's official web portal to all federal, state and local government web resources and services.